createdAt,value
2023-02-27T00:02:26.178Z,5.89
2023-02-27T00:04:54.711Z,5.88
2023-02-27T00:07:26.454Z,5.89
2023-02-27T00:09:53.352Z,5.90
2023-02-27T00:12:20.302Z,5.90
2023-02-27T00:14:46.723Z,5.90
2023-02-27T00:17:13.019Z,5.90
2023-02-27T00:19:39.403Z,5.88
2023-02-27T00:22:06.023Z,5.89
2023-02-27T00:24:32.424Z,5.87
2023-02-27T00:26:59.110Z,5.84
2023-02-27T00:29:25.573Z,5.81
2023-02-27T00:31:52.039Z,5.78
2023-02-27T00:34:18.610Z,5.75
2023-02-27T00:36:44.968Z,5.71
2023-02-27T00:39:11.442Z,5.65
2023-02-27T00:41:37.773Z,5.61
2023-02-27T00:44:04.492Z,5.57
2023-02-27T00:46:30.953Z,5.56
2023-02-27T00:48:57.295Z,5.53
2023-02-27T00:51:23.855Z,5.51
2023-02-27T00:53:50.344Z,5.50
2023-02-27T00:56:16.695Z,5.48
2023-02-27T00:58:43.054Z,5.48
2023-02-27T01:01:09.507Z,5.48
2023-02-27T01:03:36.025Z,5.47
2023-02-27T01:06:02.625Z,5.49
2023-02-27T01:08:30.246Z,5.50
2023-02-27T01:10:57.225Z,5.51
2023-02-27T01:13:24.286Z,5.51
2023-02-27T01:15:51.491Z,5.52
2023-02-27T01:18:18.380Z,5.51
2023-02-27T01:20:44.826Z,5.50
2023-02-27T01:23:11.289Z,5.50
2023-02-27T01:25:37.787Z,5.50
2023-02-27T01:28:04.508Z,5.50
2023-02-27T01:30:31.147Z,5.51
2023-02-27T01:32:57.789Z,5.52
2023-02-27T01:35:24.245Z,5.51
2023-02-27T01:37:50.948Z,5.49
2023-02-27T01:40:17.688Z,5.47
2023-02-27T01:42:44.157Z,5.45
2023-02-27T01:45:32.469Z,5.38
2023-02-27T01:48:06.702Z,5.37
2023-02-27T01:50:35.265Z,5.35
2023-02-27T01:53:03.419Z,5.33
2023-02-27T01:55:33.422Z,5.29
2023-02-27T01:58:00.462Z,5.28
2023-02-27T02:00:27.426Z,5.25
2023-02-27T02:03:07.039Z,5.22
2023-02-27T02:05:34.168Z,5.20
2023-02-27T02:08:01.597Z,5.19
2023-02-27T02:10:29.590Z,5.16
2023-02-27T02:12:56.394Z,5.13
2023-02-27T02:15:29.435Z,5.10
2023-02-27T02:18:19.363Z,5.09
2023-02-27T02:21:00.704Z,5.07
2023-02-27T02:24:07.412Z,5.05
2023-02-27T02:26:43.610Z,5.04
2023-02-27T02:29:43.837Z,5.00
2023-02-27T02:32:28.662Z,4.98
2023-02-27T02:35:12.534Z,4.95
2023-02-27T02:37:44.845Z,4.95
2023-02-27T02:40:30.114Z,4.90
2023-02-27T02:43:13.710Z,4.90
2023-02-27T02:46:02.969Z,4.87
2023-02-27T02:48:41.971Z,4.87
2023-02-27T02:51:22.592Z,4.85
2023-02-27T02:53:59.770Z,4.82
2023-02-27T02:56:30.016Z,4.83
2023-02-27T02:59:23.282Z,4.79
2023-02-27T03:02:07.999Z,4.78
2023-02-27T03:04:43.280Z,4.75
2023-02-27T03:07:16.925Z,4.72
2023-02-27T03:09:49.124Z,4.68
2023-02-27T03:12:23.778Z,4.62
2023-02-27T03:15:08.783Z,4.60
2023-02-27T03:17:52.737Z,4.56
2023-02-27T03:20:25.277Z,4.54
2023-02-27T03:22:57.318Z,4.51
2023-02-27T03:25:27.075Z,4.50
2023-02-27T03:27:58.585Z,4.46
2023-02-27T03:30:35.126Z,4.44
2023-02-27T03:33:17.228Z,4.42
2023-02-27T03:35:52.179Z,4.38
2023-02-27T03:38:28.401Z,4.36
2023-02-27T03:41:12.801Z,4.34
2023-02-27T03:44:10.395Z,4.32
2023-02-27T03:46:37.230Z,4.35
2023-02-27T03:49:04.431Z,4.33
2023-02-27T03:51:31.907Z,4.30
2023-02-27T03:54:13.457Z,4.28
2023-02-27T03:56:59.185Z,4.26
2023-02-27T03:59:26.342Z,4.27
2023-02-27T04:01:55.049Z,4.28
2023-02-27T04:04:22.516Z,4.27
2023-02-27T04:07:14.250Z,4.26
2023-02-27T04:10:08.865Z,4.24
2023-02-27T04:12:38.151Z,4.25
2023-02-27T04:15:34.355Z,4.22
2023-02-27T04:18:22.116Z,4.23
2023-02-27T04:20:57.063Z,4.21
2023-02-27T04:23:34.448Z,4.19
2023-02-27T04:26:31.594Z,4.18
2023-02-27T04:29:09.733Z,4.18
2023-02-27T04:31:47.066Z,4.17
2023-02-27T04:34:38.873Z,4.13
2023-02-27T04:37:13.073Z,4.11
2023-02-27T04:39:51.917Z,4.09
2023-02-27T04:42:24.154Z,4.09
2023-02-27T04:44:54.526Z,4.08
2023-02-27T04:47:24.463Z,4.07
2023-02-27T04:50:04.336Z,4.04
2023-02-27T04:52:38.177Z,4.04
2023-02-27T04:55:20.172Z,4.01
2023-02-27T04:57:53.664Z,4.00
2023-02-27T05:00:23.251Z,3.99
2023-02-27T05:02:55.008Z,3.98
2023-02-27T05:05:26.955Z,3.95
2023-02-27T05:08:01.303Z,3.95
2023-02-27T05:10:40.434Z,3.93
2023-02-27T05:13:13.453Z,3.91
2023-02-27T05:16:03.813Z,3.89
2023-02-27T05:18:30.855Z,3.88
2023-02-27T05:21:22.181Z,3.86
2023-02-27T05:24:18.709Z,3.85
2023-02-27T05:27:09.811Z,3.84
2023-02-27T05:29:45.703Z,3.84
2023-02-27T05:32:24.433Z,3.84
2023-02-27T05:35:30.269Z,3.82
2023-02-27T05:38:25.506Z,3.81
2023-02-27T05:41:09.260Z,3.77
2023-02-27T05:43:41.304Z,3.77
2023-02-27T05:46:13.593Z,3.74
2023-02-27T05:48:46.461Z,3.72
2023-02-27T05:51:16.873Z,3.71
2023-02-27T05:53:50.982Z,3.70
2023-02-27T05:56:21.505Z,3.70
2023-02-27T05:59:06.977Z,3.68
2023-02-27T06:01:33.728Z,3.70
2023-02-27T06:04:00.176Z,3.70
2023-02-27T06:06:27.098Z,3.72
2023-02-27T06:08:53.627Z,3.72
2023-02-27T06:11:19.952Z,3.73
2023-02-27T06:13:46.324Z,3.72
2023-02-27T06:16:14.825Z,3.71
2023-02-27T06:18:41.283Z,3.71
2023-02-27T06:21:08.174Z,3.70
2023-02-27T06:23:34.562Z,3.70
2023-02-27T06:26:00.995Z,3.69
2023-02-27T06:28:27.760Z,3.69
2023-02-27T06:30:57.067Z,3.69
2023-02-27T06:33:26.135Z,3.71
2023-02-27T06:35:53.113Z,3.74
2023-02-27T06:38:19.673Z,3.77
2023-02-27T06:40:46.097Z,3.79
2023-02-27T06:43:12.625Z,3.81
2023-02-27T06:45:39.061Z,3.84
2023-02-27T06:48:05.771Z,3.88
2023-02-27T06:50:32.824Z,3.91
2023-02-27T06:52:59.404Z,3.95
2023-02-27T06:55:25.836Z,3.99
2023-02-27T06:57:52.319Z,4.03
2023-02-27T07:00:19.144Z,4.05
2023-02-27T07:02:45.584Z,4.09
2023-02-27T07:05:12.113Z,4.15
2023-02-27T07:07:39.561Z,4.18
2023-02-27T07:10:11.821Z,4.21
2023-02-27T07:12:39.575Z,4.24
2023-02-27T07:15:07.123Z,4.28
2023-02-27T07:17:33.703Z,4.32
2023-02-27T07:20:00.114Z,4.37
2023-02-27T07:22:27.042Z,4.41
2023-02-27T07:24:53.596Z,4.46
2023-02-27T07:27:20.161Z,4.49
2023-02-27T07:29:46.530Z,4.55
2023-02-27T07:32:13.094Z,4.59
2023-02-27T07:34:39.558Z,4.66
2023-02-27T07:37:05.910Z,4.72
2023-02-27T07:39:32.527Z,4.78
2023-02-27T07:41:58.968Z,4.84
2023-02-27T07:44:25.382Z,4.89
2023-02-27T07:46:55.009Z,4.94
2023-02-27T07:49:21.366Z,5.00
2023-02-27T07:51:48.122Z,5.05
2023-02-27T07:54:14.591Z,5.11
2023-02-27T07:56:40.975Z,5.17
2023-02-27T07:59:08.484Z,5.23
2023-02-27T08:01:34.851Z,5.30
2023-02-27T08:04:01.728Z,5.37
2023-02-27T08:06:28.693Z,5.41
2023-02-27T08:08:55.275Z,5.47
2023-02-27T08:11:21.738Z,5.52
2023-02-27T08:14:00.034Z,5.57
2023-02-27T08:16:28.072Z,5.61
2023-02-27T08:18:54.629Z,5.68
2023-02-27T08:21:21.056Z,5.72
2023-02-27T08:23:47.526Z,5.79
2023-02-27T08:26:14.042Z,5.83
2023-02-27T08:28:40.795Z,5.88
2023-02-27T08:31:07.161Z,5.93
2023-02-27T08:33:34.202Z,6.00
2023-02-27T08:36:02.075Z,6.05
2023-02-27T08:38:28.447Z,6.09
2023-02-27T08:40:54.793Z,6.14
2023-02-27T08:43:22.280Z,6.21
2023-02-27T08:45:50.176Z,6.25
2023-02-27T08:48:18.548Z,6.32
2023-02-27T08:50:45.785Z,6.38
2023-02-27T08:53:13.059Z,6.47
2023-02-27T08:55:39.426Z,6.51
2023-02-27T08:58:06.320Z,6.58
2023-02-27T09:00:32.916Z,6.65
2023-02-27T09:03:01.536Z,6.72
2023-02-27T09:05:28.877Z,6.79
2023-02-27T09:07:55.515Z,6.84
2023-02-27T09:10:22.592Z,6.92
2023-02-27T09:12:49.234Z,6.98
2023-02-27T09:15:16.137Z,7.06
2023-02-27T09:17:42.611Z,7.13
2023-02-27T09:20:10.684Z,7.18
2023-02-27T09:22:37.745Z,7.27
2023-02-27T09:25:05.320Z,7.34
2023-02-27T09:27:31.684Z,7.40
2023-02-27T09:29:59.428Z,7.50
2023-02-27T09:32:26.320Z,7.57
2023-02-27T09:34:56.468Z,7.65
2023-02-27T09:37:36.480Z,7.71
2023-02-27T09:40:05.823Z,7.83
2023-02-27T09:42:46.881Z,7.89
2023-02-27T09:45:23.519Z,7.99
2023-02-27T09:47:55.680Z,8.07
2023-02-27T09:50:34.094Z,8.13
2023-02-27T09:53:00.740Z,8.25
2023-02-27T09:55:34.897Z,8.31
2023-02-27T09:58:12.953Z,8.39
2023-02-27T10:00:57.571Z,8.48
2023-02-27T10:03:43.385Z,8.52
2023-02-27T10:06:27.217Z,8.57
2023-02-27T10:09:09.106Z,8.63
2023-02-27T10:11:51.729Z,8.65
2023-02-27T10:14:53.819Z,8.70
2023-02-27T10:17:26.367Z,8.79
2023-02-27T10:19:54.624Z,8.85
2023-02-27T10:22:27.053Z,8.89
2023-02-27T10:25:00.791Z,8.97
2023-02-27T10:27:27.350Z,9.05
2023-02-27T10:30:05.780Z,9.14
2023-02-27T10:32:35.720Z,9.26
2023-02-27T10:35:15.001Z,9.40
2023-02-27T10:37:48.146Z,9.52
2023-02-27T10:40:16.471Z,9.65
2023-02-27T10:42:43.379Z,9.76
2023-02-27T10:45:16.048Z,9.88
2023-02-27T10:47:43.144Z,9.97
2023-02-27T10:50:31.079Z,10.01
2023-02-27T10:53:00.427Z,10.12
2023-02-27T10:55:30.059Z,10.16
2023-02-27T10:57:58.370Z,10.20
2023-02-27T11:00:49.705Z,10.23
2023-02-27T11:03:22.891Z,10.25
2023-02-27T11:06:17.529Z,10.27
2023-02-27T11:08:43.987Z,10.28
2023-02-27T11:11:12.092Z,10.27
2023-02-27T11:13:41.642Z,10.27
2023-02-27T11:16:21.810Z,10.24
2023-02-27T11:18:51.127Z,10.24
2023-02-27T11:21:20.339Z,10.20
2023-02-27T11:23:57.355Z,10.15
2023-02-27T11:26:54.314Z,10.12
2023-02-27T11:29:21.771Z,10.08
2023-02-27T11:31:55.094Z,10.02
2023-02-27T11:34:28.419Z,10.02
2023-02-27T11:37:02.162Z,10.00
2023-02-27T11:39:47.647Z,9.96
2023-02-27T11:42:48.364Z,9.97
2023-02-27T11:46:19.453Z,10.00
2023-02-27T11:48:18.062Z,10.08
2023-02-27T11:50:56.826Z,10.14
2023-02-27T11:53:34.629Z,10.25
2023-02-27T11:56:04.070Z,10.37
2023-02-27T11:58:44.472Z,10.41
2023-02-27T12:01:30.969Z,10.48
2023-02-27T12:04:13.724Z,10.54
2023-02-27T12:06:45.432Z,10.62
2023-02-27T12:10:01.374Z,10.65
2023-02-27T12:12:51.119Z,10.68
2023-02-27T12:15:32.833Z,10.69
2023-02-27T12:18:20.617Z,10.64
2023-02-27T12:20:47.059Z,10.63
2023-02-27T12:23:29.496Z,10.55
2023-02-27T12:26:13.653Z,10.52
2023-02-27T12:28:53.923Z,10.47
2023-02-27T12:31:32.584Z,10.44
2023-02-27T12:34:07.114Z,10.41
2023-02-27T12:36:33.539Z,10.42
2023-02-27T12:39:00.136Z,10.41
2023-02-27T12:42:05.952Z,10.36
2023-02-27T12:44:50.751Z,10.40
2023-02-27T12:47:52.763Z,10.41
2023-02-27T12:50:22.947Z,10.46
2023-02-27T12:53:13.386Z,10.47
2023-02-27T12:55:48.946Z,10.50
2023-02-27T12:58:27.484Z,10.58
2023-02-27T13:01:02.225Z,10.65
2023-02-27T13:03:42.206Z,10.70
2023-02-27T13:06:21.012Z,10.75
2023-02-27T13:09:15.260Z,10.85
2023-02-27T13:11:56.991Z,10.98
2023-02-27T13:14:46.960Z,11.06
2023-02-27T13:17:36.389Z,11.13
2023-02-27T13:20:21.282Z,11.18
2023-02-27T13:23:15.939Z,11.19
2023-02-27T13:25:47.790Z,11.18
2023-02-27T13:28:18.517Z,11.16
2023-02-27T13:31:04.239Z,11.12
2023-02-27T13:33:42.537Z,11.07
2023-02-27T13:36:25.511Z,11.05
2023-02-27T13:38:54.789Z,11.00
2023-02-27T13:41:23.494Z,10.98
2023-02-27T13:44:19.998Z,10.97
2023-02-27T13:46:47.114Z,11.02
2023-02-27T13:49:29.645Z,11.03
2023-02-27T13:51:59.904Z,11.11
2023-02-27T13:54:33.615Z,11.16
2023-02-27T13:57:19.039Z,11.24
2023-02-27T13:59:57.322Z,11.32
2023-02-27T14:02:56.763Z,11.40
2023-02-27T14:05:43.530Z,11.49
2023-02-27T14:08:19.598Z,11.55
2023-02-27T14:11:10.146Z,11.54
2023-02-27T14:13:49.399Z,11.52
2023-02-27T14:16:37.776Z,11.44
2023-02-27T14:19:24.168Z,11.38
2023-02-27T14:22:01.489Z,11.31
2023-02-27T14:24:44.854Z,11.27
2023-02-27T14:27:22.993Z,11.22
2023-02-27T14:29:52.709Z,11.21
2023-02-27T14:32:25.628Z,11.17
2023-02-27T14:34:55.824Z,11.19
2023-02-27T14:37:25.759Z,11.23
2023-02-27T14:39:54.486Z,11.29
2023-02-27T14:42:30.351Z,11.35
2023-02-27T14:44:57.008Z,11.45
2023-02-27T14:47:32.435Z,11.49
2023-02-27T14:49:59.354Z,11.55
2023-02-27T14:52:31.461Z,11.57
2023-02-27T14:55:19.157Z,11.55
2023-02-27T14:58:13.043Z,11.54
2023-02-27T15:00:50.525Z,11.51
2023-02-27T15:03:22.758Z,11.44
2023-02-27T15:05:54.824Z,11.40
2023-02-27T15:08:28.819Z,11.36
2023-02-27T15:10:59.942Z,11.33
2023-02-27T15:13:35.791Z,11.30
2023-02-27T15:16:24.451Z,11.29
2023-02-27T15:18:57.721Z,11.33
2023-02-27T15:21:26.868Z,11.29
2023-02-27T15:23:55.767Z,11.29
2023-02-27T15:26:25.492Z,11.28
2023-02-27T15:28:52.746Z,11.25
2023-02-27T15:31:22.395Z,11.22
2023-02-27T15:33:50.139Z,11.21
2023-02-27T15:36:26.351Z,11.19
2023-02-27T15:39:17.455Z,11.19
2023-02-27T15:41:51.522Z,11.21
2023-02-27T15:44:23.581Z,11.23
2023-02-27T15:46:51.005Z,11.22
2023-02-27T15:49:21.236Z,11.20
2023-02-27T15:52:01.836Z,11.17
2023-02-27T15:54:36.799Z,11.15
2023-02-27T15:57:05.117Z,11.13
2023-02-27T15:59:37.173Z,11.10
2023-02-27T16:02:05.990Z,11.07
2023-02-27T16:04:34.606Z,11.05
2023-02-27T16:07:05.736Z,11.01
2023-02-27T16:09:36.419Z,10.98
2023-02-27T16:12:24.156Z,10.93
2023-02-27T16:14:55.756Z,10.92
2023-02-27T16:17:28.949Z,10.87
2023-02-27T16:19:57.243Z,10.84
2023-02-27T16:22:24.518Z,10.79
2023-02-27T16:24:51.770Z,10.77
2023-02-27T16:27:26.984Z,10.72
2023-02-27T16:29:55.985Z,10.69
2023-02-27T16:32:26.592Z,10.64
2023-02-27T16:35:02.180Z,10.61
2023-02-27T16:37:38.271Z,10.57
2023-02-27T16:40:19.498Z,10.52
2023-02-27T16:42:46.670Z,10.52
2023-02-27T16:45:22.396Z,10.46
2023-02-27T16:47:50.805Z,10.45
2023-02-27T16:50:27.871Z,10.41
2023-02-27T16:52:54.625Z,10.40
2023-02-27T16:55:21.309Z,10.37
2023-02-27T16:57:47.900Z,10.34
2023-02-27T17:00:16.356Z,10.29
2023-02-27T17:02:43.126Z,10.27
2023-02-27T17:05:10.814Z,10.24
2023-02-27T17:07:38.636Z,10.20
2023-02-27T17:10:05.321Z,10.14
2023-02-27T17:12:31.968Z,10.09
2023-02-27T17:14:58.331Z,10.03
2023-02-27T17:17:24.885Z,9.99
2023-02-27T17:19:52.560Z,9.95
2023-02-27T17:22:18.979Z,9.89
2023-02-27T17:24:45.451Z,9.85
2023-02-27T17:27:11.859Z,9.83
2023-02-27T17:29:39.057Z,9.80
2023-02-27T17:32:06.657Z,9.79
2023-02-27T17:34:33.347Z,9.78
2023-02-27T17:36:59.780Z,9.78
2023-02-27T17:39:26.358Z,9.76
2023-02-27T17:41:54.504Z,9.75
2023-02-27T17:44:21.441Z,9.72
2023-02-27T17:46:47.967Z,9.69
2023-02-27T17:49:16.372Z,9.66
2023-02-27T17:51:44.183Z,9.62
2023-02-27T17:54:10.904Z,9.59
2023-02-27T17:56:38.585Z,9.55
2023-02-27T17:59:11.142Z,9.50
2023-02-27T18:01:40.284Z,9.46
2023-02-27T18:04:10.894Z,9.41
2023-02-27T18:06:37.895Z,9.38
2023-02-27T18:09:05.846Z,9.33
2023-02-27T18:11:32.380Z,9.30
2023-02-27T18:13:59.318Z,9.26
2023-02-27T18:16:26.172Z,9.22
2023-02-27T18:18:52.621Z,9.18
2023-02-27T18:21:23.614Z,9.14
2023-02-27T18:23:54.871Z,9.12
2023-02-27T18:26:32.871Z,9.11
2023-02-27T18:29:02.207Z,9.12
2023-02-27T18:31:32.223Z,9.13
2023-02-27T18:33:58.987Z,9.15
2023-02-27T18:36:25.356Z,9.18
2023-02-27T18:38:51.700Z,9.21
2023-02-27T18:41:18.090Z,9.22
2023-02-27T18:43:44.972Z,9.26
2023-02-27T18:46:16.513Z,9.29
2023-02-27T18:48:44.543Z,9.31
2023-02-27T18:51:14.447Z,9.34
2023-02-27T18:53:46.991Z,9.36
2023-02-27T18:56:17.530Z,9.37
2023-02-27T18:58:44.473Z,9.40
2023-02-27T19:01:31.950Z,9.38
2023-02-27T19:04:03.423Z,9.42
2023-02-27T19:06:32.229Z,9.43
2023-02-27T19:08:58.864Z,9.45
2023-02-27T19:11:29.443Z,9.45
2023-02-27T19:13:59.930Z,9.46
2023-02-27T19:16:27.421Z,9.46
2023-02-27T19:18:56.029Z,9.47
2023-02-27T19:21:22.705Z,9.48
2023-02-27T19:23:49.122Z,9.47
2023-02-27T19:26:16.539Z,9.48
2023-02-27T19:28:44.155Z,9.50
2023-02-27T19:31:14.260Z,9.47
2023-02-27T19:33:41.131Z,9.49
2023-02-27T19:36:10.836Z,9.48
2023-02-27T19:38:37.819Z,9.46
2023-02-27T19:41:06.572Z,9.45
2023-02-27T19:43:38.634Z,9.42
2023-02-27T19:46:10.479Z,9.37
2023-02-27T19:48:37.157Z,9.34
2023-02-27T19:51:05.521Z,9.27
2023-02-27T19:53:33.746Z,9.24
2023-02-27T19:56:01.601Z,9.19
2023-02-27T19:58:29.768Z,9.14
2023-02-27T20:00:56.479Z,9.11
2023-02-27T20:03:23.682Z,9.05
2023-02-27T20:05:50.533Z,9.02
2023-02-27T20:08:17.563Z,8.98
2023-02-27T20:10:56.121Z,8.92
2023-02-27T20:13:23.360Z,8.91
2023-02-27T20:16:04.225Z,8.86
2023-02-27T20:18:32.018Z,8.84
2023-02-27T20:21:07.784Z,8.80
2023-02-27T20:23:37.836Z,8.77
2023-02-27T20:26:20.199Z,8.71
2023-02-27T20:28:49.727Z,8.69
2023-02-27T20:31:21.091Z,8.64
2023-02-27T20:33:49.899Z,8.60
2023-02-27T20:36:17.013Z,8.55
2023-02-27T20:38:44.221Z,8.49
2023-02-27T20:41:14.499Z,8.43
2023-02-27T20:43:43.126Z,8.38
2023-02-27T20:46:16.257Z,8.34
2023-02-27T20:48:43.277Z,8.29
2023-02-27T20:51:13.802Z,8.23
2023-02-27T20:53:43.175Z,8.19
2023-02-27T20:56:11.902Z,8.13
2023-02-27T20:58:39.130Z,8.07
2023-02-27T21:01:13.211Z,8.01
2023-02-27T21:03:42.982Z,7.96
2023-02-27T21:06:11.379Z,7.89
2023-02-27T21:08:39.546Z,7.86
2023-02-27T21:11:11.373Z,7.80
2023-02-27T21:13:38.201Z,7.75
2023-02-27T21:16:07.391Z,7.70
2023-02-27T21:18:34.146Z,7.64
2023-02-27T21:21:09.462Z,7.58
2023-02-27T21:23:43.930Z,7.53
2023-02-27T21:26:33.322Z,7.47
2023-02-27T21:29:15.264Z,7.42
2023-02-27T21:31:45.159Z,7.39
2023-02-27T21:34:14.959Z,7.34
2023-02-27T21:36:43.399Z,7.28
2023-02-27T21:39:13.223Z,7.26
2023-02-27T21:41:40.261Z,7.24
2023-02-27T21:44:08.096Z,7.18
2023-02-27T21:46:36.403Z,7.16
2023-02-27T21:49:04.003Z,7.12
2023-02-27T21:51:39.914Z,7.11
2023-02-27T21:54:09.681Z,7.09
2023-02-27T21:56:36.565Z,7.08
2023-02-27T21:59:04.152Z,7.08
2023-02-27T22:01:31.573Z,7.09
2023-02-27T22:03:58.518Z,7.10
2023-02-27T22:06:27.607Z,7.10
2023-02-27T22:08:55.751Z,7.10
2023-02-27T22:11:23.894Z,7.10
2023-02-27T22:13:50.764Z,7.10
2023-02-27T22:16:17.693Z,7.11
2023-02-27T22:18:44.574Z,7.11
2023-02-27T22:21:18.148Z,7.11
2023-02-27T22:23:46.420Z,7.12
2023-02-27T22:26:18.292Z,7.10
2023-02-27T22:28:44.805Z,7.11
2023-02-27T22:31:19.478Z,7.10
2023-02-27T22:33:48.683Z,7.10
2023-02-27T22:36:18.426Z,7.10
2023-02-27T22:38:44.997Z,7.11
2023-02-27T22:41:14.250Z,7.11
2023-02-27T22:43:42.033Z,7.11
2023-02-27T22:46:09.831Z,7.09
2023-02-27T22:48:38.659Z,7.11
2023-02-27T22:51:09.058Z,7.10
2023-02-27T22:53:39.400Z,7.10
2023-02-27T22:56:24.960Z,7.07
2023-02-27T22:58:51.485Z,7.08
2023-02-27T23:01:25.957Z,7.06
2023-02-27T23:03:55.475Z,7.07
2023-02-27T23:06:25.066Z,7.05
2023-02-27T23:08:54.674Z,7.05
2023-02-27T23:11:21.699Z,7.06
2023-02-27T23:13:48.849Z,7.04
2023-02-27T23:16:15.560Z,7.03
2023-02-27T23:18:49.023Z,7.00
2023-02-27T23:21:19.852Z,7.01
2023-02-27T23:23:47.807Z,6.99
2023-02-27T23:26:14.670Z,6.98
2023-02-27T23:28:41.333Z,6.98
2023-02-27T23:31:08.593Z,6.94
2023-02-27T23:33:35.654Z,6.93
2023-02-27T23:36:02.888Z,6.91
2023-02-27T23:38:30.098Z,6.90
2023-02-27T23:40:56.632Z,6.90
2023-02-27T23:43:42.308Z,6.86
2023-02-27T23:46:10.473Z,6.82
2023-02-27T23:48:37.423Z,6.83
2023-02-27T23:51:06.088Z,6.79
2023-02-27T23:53:34.358Z,6.77
2023-02-27T23:56:00.996Z,6.76
2023-02-27T23:58:28.335Z,6.76
